»·PEaware :: N325HC KIFP-KIFP

N325HC :: KIFP-KIFP

FLIGHT INFORMATION

Flight Status: Arrived
Operator: Privately registered:
United States
More flights under this callsign
Pilot: Ian H. (8262)
Aircraft: Unknown
(0)
More flights by this aircraft type
Origin: KIFP Laughlin/Bullhead Intl
United States
Destination: KIFP Laughlin/Bullhead Intl
United States
More flights between these airports :: More routes between these airports
Route: +EED
File this flight plan on PilotEdge
Remarks: VOR RWY 34 Approach Practice
Altitude:
(Current/Filed)
5,000ft
Speed:
(Current/Filed)
115kts
Departed: 06-Jul-18 01:35 PM
Arrived: 06-Jul-18 02:40 PM
Distance/Time
Traveled:
0nm/1:05
Distance/Time
To Go:
Arrived

Flight Plot

Page will automatically refresh every two minutes.


Map Options




Map Legend


Flown Route
Filed Route
Departure Airport
Arrival Airport
Navaid (VOR, NDB)
Fix

Horizontal Profiles

Position Reports

Time Latitude Longitude Heading Altitude Ground
Speed
06-Jul-18 13:24 35.158720 -114.555968 327 683ft 0kts
06-Jul-18 13:25 35.158720 -114.555968 327 683ft 0kts
06-Jul-18 13:26 35.158720 -114.555968 327 683ft 0kts
06-Jul-18 13:27 35.158720 -114.555968 327 683ft 0kts
06-Jul-18 13:28 35.158720 -114.555968 327 683ft 0kts
06-Jul-18 13:29 35.158720 -114.555968 327 683ft 0kts
06-Jul-18 13:29 35.158720 -114.555968 327 683ft 0kts
06-Jul-18 13:30 35.158720 -114.555968 327 683ft 0kts
06-Jul-18 13:31 35.161046 -114.557095 341 668ft 15kts
06-Jul-18 13:32 35.163990 -114.558644 355 643ft 15kts
06-Jul-18 13:33 35.166111 -114.558974 314 634ft 6kts
06-Jul-18 13:34 35.165395 -114.560145 176 620ft 31kts
06-Jul-18 13:35 35.143272 -114.556259 135 1354ft 103kts
06-Jul-18 13:36 35.116153 -114.544848 172 2371ft 116kts
06-Jul-18 13:37 35.086248 -114.538917 171 3579ft 108kts
06-Jul-18 13:38 35.056355 -114.532734 171 4616ft 110kts
06-Jul-18 13:39 35.025866 -114.526396 170 5604ft 113kts
06-Jul-18 13:40 35.001110 -114.521317 170 6361ft 120kts
06-Jul-18 13:41 34.967505 -114.514516 170 6396ft 161kts
06-Jul-18 13:42 34.919138 -114.504798 169 6113ft 185kts
06-Jul-18 13:43 34.867744 -114.494463 168 6080ft 179kts
06-Jul-18 13:44 34.824507 -114.485770 168 6795ft 165kts
06-Jul-18 13:45 34.776914 -114.476261 168 6399ft 169kts
06-Jul-18 13:46 34.752023 -114.448442 53 6342ft 143kts
06-Jul-18 13:47 34.776322 -114.469145 292 6342ft 146kts
06-Jul-18 13:48 34.799811 -114.461087 108 6344ft 130kts
06-Jul-18 13:49 34.766048 -114.447910 170 6342ft 136kts
06-Jul-18 13:50 34.729082 -114.438421 171 6220ft 137kts
06-Jul-18 13:51 34.724339 -114.469366 349 6090ft 123kts
06-Jul-18 13:52 34.755844 -114.472625 356 6099ft 109kts
06-Jul-18 13:53 34.787082 -114.478769 353 5965ft 124kts
06-Jul-18 13:54 34.821426 -114.486326 352 5468ft 125kts
06-Jul-18 13:55 34.854646 -114.493654 352 4976ft 116kts
06-Jul-18 13:56 34.884855 -114.499843 354 4942ft 116kts
06-Jul-18 13:57 34.918378 -114.506321 353 4926ft 126kts
06-Jul-18 13:58 34.953183 -114.512793 353 4634ft 134kts
06-Jul-18 13:59 34.990305 -114.519475 352 3934ft 135kts
06-Jul-18 14:01 35.027575 -114.526047 350 3119ft 136kts
06-Jul-18 14:02 35.059772 -114.531631 348 2869ft 109kts
06-Jul-18 14:03 35.093753 -114.538159 348 2872ft 132kts
06-Jul-18 14:04 35.128917 -114.552547 318 2376ft 139kts
06-Jul-18 14:05 35.163053 -114.567428 352 1473ft 129kts
06-Jul-18 14:06 35.186702 -114.557419 168 1377ft 83kts
06-Jul-18 14:07 35.160774 -114.559918 178 1017ft 105kts
06-Jul-18 14:08 35.137169 -114.545961 129 2288ft 112kts
06-Jul-18 14:09 35.117641 -114.521780 171 3601ft 102kts
06-Jul-18 14:10 35.085450 -114.515986 172 4596ft 105kts
06-Jul-18 14:11 35.058368 -114.511554 174 5783ft 99kts
06-Jul-18 14:12 35.024653 -114.507061 174 6007ft 152kts
06-Jul-18 14:13 34.979551 -114.501536 173 6039ft 167kts
06-Jul-18 14:14 34.935188 -114.496051 172 6050ft 156kts
06-Jul-18 14:15 34.895048 -114.491039 170 6354ft 150kts
06-Jul-18 14:16 34.853854 -114.485549 170 6353ft 145kts
06-Jul-18 14:17 34.814481 -114.480375 170 6354ft 141kts
06-Jul-18 14:18 34.775784 -114.475383 170 6352ft 136kts
06-Jul-18 14:19 34.743870 -114.466177 148 6350ft 108kts
06-Jul-18 14:20 34.729666 -114.444905 68 6350ft 92kts
06-Jul-18 14:21 34.750052 -114.450220 281 6360ft 132kts
06-Jul-18 14:22 34.767683 -114.484247 347 6357ft 129kts
06-Jul-18 14:23 34.787879 -114.461117 78 6353ft 121kts
06-Jul-18 14:24 34.767792 -114.438356 167 6378ft 120kts
06-Jul-18 14:25 34.736096 -114.432848 167 6364ft 111kts
06-Jul-18 14:26 34.718479 -114.453323 297 6369ft 124kts
06-Jul-18 14:27 34.748098 -114.471090 355 6303ft 126kts
06-Jul-18 14:28 34.784674 -114.478704 353 5916ft 137kts
06-Jul-18 14:29 34.822188 -114.487736 351 5511ft 132kts
06-Jul-18 14:30 34.857011 -114.496209 352 5106ft 124kts
06-Jul-18 14:31 34.887394 -114.503171 353 5066ft 99kts
06-Jul-18 14:32 34.914783 -114.509110 353 5083ft 117kts
06-Jul-18 14:33 34.950807 -114.516361 352 4789ft 141kts
06-Jul-18 14:34 34.988733 -114.524039 351 3782ft 137kts
06-Jul-18 14:35 35.025403 -114.531309 349 3120ft 127kts
06-Jul-18 14:36 35.059455 -114.539474 339 2992ft 130kts
06-Jul-18 14:37 35.094418 -114.555907 340 2506ft 136kts
06-Jul-18 14:38 35.131416 -114.568504 348 1936ft 136kts
06-Jul-18 14:39 35.165766 -114.575879 350 1727ft 123kts
06-Jul-18 14:40 35.166850 -114.560213 179 714ft 112kts
06-Jul-18 14:41 35.155894 -114.558546 93 662ft 8kts
06-Jul-18 14:42 35.155867 -114.558282 113 665ft 0kts

Navigation Log

Ident Type
1. KIFP Airport
2. EED Navaid
3. KIFP Airport